sensor_id;sensor_type;location;lat;lon;timestamp;temperature;humidity
12254;DHT22;6189;52.526;13.390;2023-09-08T00:02:43;22.60;94.60
12254;DHT22;6189;52.526;13.390;2023-09-08T00:05:31;22.50;94.60
12254;DHT22;6189;52.526;13.390;2023-09-08T00:08:19;22.60;94.70
12254;DHT22;6189;52.526;13.390;2023-09-08T00:11:08;22.60;94.70
12254;DHT22;6189;52.526;13.390;2023-09-08T00:13:56;22.60;94.80
12254;DHT22;6189;52.526;13.390;2023-09-08T00:16:45;22.50;94.80
12254;DHT22;6189;52.526;13.390;2023-09-08T00:19:32;22.40;95.10
12254;DHT22;6189;52.526;13.390;2023-09-08T00:22:23;22.50;95.10
12254;DHT22;6189;52.526;13.390;2023-09-08T00:25:12;22.50;95.20
12254;DHT22;6189;52.526;13.390;2023-09-08T00:27:59;22.50;95.30
12254;DHT22;6189;52.526;13.390;2023-09-08T00:30:48;22.50;95.30
12254;DHT22;6189;52.526;13.390;2023-09-08T00:33:36;22.30;95.30
12254;DHT22;6189;52.526;13.390;2023-09-08T00:36:24;22.30;95.80
12254;DHT22;6189;52.526;13.390;2023-09-08T00:39:11;22.30;95.50
12254;DHT22;6189;52.526;13.390;2023-09-08T00:42:02;22.20;95.70
12254;DHT22;6189;52.526;13.390;2023-09-08T00:44:52;22.20;95.80
12254;DHT22;6189;52.526;13.390;2023-09-08T00:47:41;22.20;95.80
12254;DHT22;6189;52.526;13.390;2023-09-08T00:50:28;22.20;96.10
12254;DHT22;6189;52.526;13.390;2023-09-08T00:53:18;22.20;96.10
12254;DHT22;6189;52.526;13.390;2023-09-08T00:56:05;22.20;96.00
12254;DHT22;6189;52.526;13.390;2023-09-08T00:58:55;22.20;95.70
12254;DHT22;6189;52.526;13.390;2023-09-08T01:01:43;22.20;96.60
12254;DHT22;6189;52.526;13.390;2023-09-08T01:04:30;22.10;96.30
12254;DHT22;6189;52.526;13.390;2023-09-08T01:07:19;22.20;96.40
12254;DHT22;6189;52.526;13.390;2023-09-08T01:10:07;22.20;96.80
12254;DHT22;6189;52.526;13.390;2023-09-08T01:12:54;22.10;96.90
12254;DHT22;6189;52.526;13.390;2023-09-08T01:15:46;22.10;96.80
12254;DHT22;6189;52.526;13.390;2023-09-08T01:18:34;22.10;97.30
12254;DHT22;6189;52.526;13.390;2023-09-08T01:21:35;22.00;97.20
12254;DHT22;6189;52.526;13.390;2023-09-08T01:27:47;21.80;97.20
12254;DHT22;6189;52.526;13.390;2023-09-08T01:30:35;21.80;97.50
12254;DHT22;6189;52.526;13.390;2023-09-08T01:33:24;21.80;97.30
12254;DHT22;6189;52.526;13.390;2023-09-08T01:36:12;21.70;97.60
12254;DHT22;6189;52.526;13.390;2023-09-08T01:39:00;21.70;97.80
12254;DHT22;6189;52.526;13.390;2023-09-08T01:41:49;21.70;98.00
12254;DHT22;6189;52.526;13.390;2023-09-08T01:44:38;21.70;97.90
12254;DHT22;6189;52.526;13.390;2023-09-08T01:47:29;21.70;98.00
12254;DHT22;6189;52.526;13.390;2023-09-08T01:50:17;21.80;98.30
12254;DHT22;6189;52.526;13.390;2023-09-08T01:53:07;21.70;98.10
12254;DHT22;6189;52.526;13.390;2023-09-08T01:55:56;21.70;98.40
12254;DHT22;6189;52.526;13.390;2023-09-08T01:58:47;21.80;98.30
12254;DHT22;6189;52.526;13.390;2023-09-08T02:01:36;21.80;98.40
12254;DHT22;6189;52.526;13.390;2023-09-08T02:04:25;21.80;98.40
12254;DHT22;6189;52.526;13.390;2023-09-08T02:07:13;21.70;98.40
12254;DHT22;6189;52.526;13.390;2023-09-08T02:10:01;21.70;98.70
12254;DHT22;6189;52.526;13.390;2023-09-08T02:12:48;21.60;98.70
12254;DHT22;6189;52.526;13.390;2023-09-08T02:15:37;21.60;98.90
12254;DHT22;6189;52.526;13.390;2023-09-08T02:18:29;21.50;99.20
12254;DHT22;6189;52.526;13.390;2023-09-08T02:21:16;21.50;99.10
12254;DHT22;6189;52.526;13.390;2023-09-08T02:24:04;21.40;99.40
12254;DHT22;6189;52.526;13.390;2023-09-08T02:26:52;21.30;99.60
12254;DHT22;6189;52.526;13.390;2023-09-08T02:29:40;21.30;99.90
12254;DHT22;6189;52.526;13.390;2023-09-08T02:32:27;21.30;99.90
12254;DHT22;6189;52.526;13.390;2023-09-08T02:35:16;21.30;99.90
12254;DHT22;6189;52.526;13.390;2023-09-08T02:38:04;21.30;99.90
12254;DHT22;6189;52.526;13.390;2023-09-08T02:40:52;21.30;99.90
12254;DHT22;6189;52.526;13.390;2023-09-08T02:43:47;21.40;99.90
12254;DHT22;6189;52.526;13.390;2023-09-08T02:46:34;21.40;99.90
12254;DHT22;6189;52.526;13.390;2023-09-08T02:49:21;21.40;99.90
12254;DHT22;6189;52.526;13.390;2023-09-08T02:52:10;21.40;99.90
12254;DHT22;6189;52.526;13.390;2023-09-08T02:55:03;21.40;99.90
12254;DHT22;6189;52.526;13.390;2023-09-08T02:57:52;21.30;99.90
12254;DHT22;6189;52.526;13.390;2023-09-08T03:00:42;21.20;99.90
12254;DHT22;6189;52.526;13.390;2023-09-08T03:03:30;21.10;99.90
12254;DHT22;6189;52.526;13.390;2023-09-08T03:06:19;21.10;99.90
12254;DHT22;6189;52.526;13.390;2023-09-08T03:09:08;21.00;99.90
12254;DHT22;6189;52.526;13.390;2023-09-08T03:11:57;21.00;99.90
12254;DHT22;6189;52.526;13.390;2023-09-08T03:14:47;21.00;99.90
12254;DHT22;6189;52.526;13.390;2023-09-08T03:17:35;20.90;99.90
12254;DHT22;6189;52.526;13.390;2023-09-08T03:20:23;20.90;99.90
12254;DHT22;6189;52.526;13.390;2023-09-08T03:23:14;21.00;99.90
12254;DHT22;6189;52.526;13.390;2023-09-08T03:26:09;21.00;99.90
12254;DHT22;6189;52.526;13.390;2023-09-08T03:28:56;21.10;99.90
12254;DHT22;6189;52.526;13.390;2023-09-08T03:31:43;21.20;99.90
12254;DHT22;6189;52.526;13.390;2023-09-08T03:34:31;21.00;99.90
12254;DHT22;6189;52.526;13.390;2023-09-08T03:37:20;21.00;99.90
12254;DHT22;6189;52.526;13.390;2023-09-08T03:40:17;21.10;99.90
12254;DHT22;6189;52.526;13.390;2023-09-08T03:43:06;21.10;99.90
12254;DHT22;6189;52.526;13.390;2023-09-08T03:45:53;21.10;99.90
12254;DHT22;6189;52.526;13.390;2023-09-08T03:48:40;21.00;99.90
12254;DHT22;6189;52.526;13.390;2023-09-08T03:51:28;21.00;99.90
12254;DHT22;6189;52.526;13.390;2023-09-08T03:54:15;20.90;99.90
12254;DHT22;6189;52.526;13.390;2023-09-08T03:57:02;20.80;99.90
12254;DHT22;6189;52.526;13.390;2023-09-08T03:59:51;20.90;99.90
12254;DHT22;6189;52.526;13.390;2023-09-08T04:02:40;20.90;99.90
12254;DHT22;6189;52.526;13.390;2023-09-08T04:05:29;20.90;99.90
12254;DHT22;6189;52.526;13.390;2023-09-08T04:08:28;20.90;99.90
12254;DHT22;6189;52.526;13.390;2023-09-08T04:11:16;20.90;99.90
12254;DHT22;6189;52.526;13.390;2023-09-08T04:14:03;20.80;99.90
12254;DHT22;6189;52.526;13.390;2023-09-08T04:16:53;20.90;99.90
12254;DHT22;6189;52.526;13.390;2023-09-08T04:19:40;20.70;99.90
12254;DHT22;6189;52.526;13.390;2023-09-08T04:22:28;20.70;99.90
12254;DHT22;6189;52.526;13.390;2023-09-08T04:25:15;20.70;99.90
12254;DHT22;6189;52.526;13.390;2023-09-08T04:28:02;20.70;99.90
12254;DHT22;6189;52.526;13.390;2023-09-08T04:30:50;20.60;99.90
12254;DHT22;6189;52.526;13.390;2023-09-08T04:33:39;20.60;99.90
12254;DHT22;6189;52.526;13.390;2023-09-08T04:36:30;20.50;99.90
12254;DHT22;6189;52.526;13.390;2023-09-08T04:39:20;20.50;99.90
12254;DHT22;6189;52.526;13.390;2023-09-08T04:42:08;20.60;99.90
12254;DHT22;6189;52.526;13.390;2023-09-08T04:44:55;20.40;99.90
12254;DHT22;6189;52.526;13.390;2023-09-08T04:47:45;20.50;99.90
12254;DHT22;6189;52.526;13.390;2023-09-08T04:50:35;20.50;99.90
12254;DHT22;6189;52.526;13.390;2023-09-08T04:53:22;20.30;99.90
12254;DHT22;6189;52.526;13.390;2023-09-08T04:56:11;20.30;99.90
12254;DHT22;6189;52.526;13.390;2023-09-08T04:58:59;20.50;99.90
12254;DHT22;6189;52.526;13.390;2023-09-08T05:01:48;20.30;99.90
12254;DHT22;6189;52.526;13.390;2023-09-08T05:04:36;20.40;99.90
12254;DHT22;6189;52.526;13.390;2023-09-08T05:07:25;20.30;99.90
12254;DHT22;6189;52.526;13.390;2023-09-08T05:10:15;20.40;99.90
12254;DHT22;6189;52.526;13.390;2023-09-08T05:13:02;20.40;99.90
12254;DHT22;6189;52.526;13.390;2023-09-08T05:15:50;20.40;99.90
12254;DHT22;6189;52.526;13.390;2023-09-08T05:18:46;20.30;99.90
12254;DHT22;6189;52.526;13.390;2023-09-08T05:21:33;20.40;99.90
12254;DHT22;6189;52.526;13.390;2023-09-08T05:24:22;20.40;99.90
12254;DHT22;6189;52.526;13.390;2023-09-08T05:27:12;20.40;99.90
12254;DHT22;6189;52.526;13.390;2023-09-08T05:29:59;20.50;99.90
12254;DHT22;6189;52.526;13.390;2023-09-08T05:32:46;20.60;99.90
12254;DHT22;6189;52.526;13.390;2023-09-08T05:35:33;20.50;99.90
12254;DHT22;6189;52.526;13.390;2023-09-08T05:38:20;20.50;99.90
12254;DHT22;6189;52.526;13.390;2023-09-08T05:41:14;20.60;99.90
12254;DHT22;6189;52.526;13.390;2023-09-08T05:44:03;20.60;99.90
12254;DHT22;6189;52.526;13.390;2023-09-08T05:46:50;20.60;99.90
12254;DHT22;6189;52.526;13.390;2023-09-08T05:49:37;20.60;99.90
12254;DHT22;6189;52.526;13.390;2023-09-08T05:52:27;20.60;99.90
12254;DHT22;6189;52.526;13.390;2023-09-08T05:55:14;20.50;99.90
12254;DHT22;6189;52.526;13.390;2023-09-08T05:58:05;20.50;99.90
12254;DHT22;6189;52.526;13.390;2023-09-08T06:00:53;20.50;99.90
12254;DHT22;6189;52.526;13.390;2023-09-08T06:03:41;20.50;99.90
12254;DHT22;6189;52.526;13.390;2023-09-08T06:06:29;20.50;99.90
12254;DHT22;6189;52.526;13.390;2023-09-08T06:09:16;20.60;99.90
12254;DHT22;6189;52.526;13.390;2023-09-08T06:12:04;20.60;99.90
12254;DHT22;6189;52.526;13.390;2023-09-08T06:14:53;20.60;99.90
12254;DHT22;6189;52.526;13.390;2023-09-08T06:17:41;20.60;99.90
12254;DHT22;6189;52.526;13.390;2023-09-08T06:20:34;20.50;99.90
12254;DHT22;6189;52.526;13.390;2023-09-08T06:23:23;20.60;99.90
12254;DHT22;6189;52.526;13.390;2023-09-08T06:26:12;20.70;99.90
12254;DHT22;6189;52.526;13.390;2023-09-08T06:28:59;20.80;99.90
12254;DHT22;6189;52.526;13.390;2023-09-08T06:31:48;20.90;99.90
12254;DHT22;6189;52.526;13.390;2023-09-08T06:34:36;20.80;99.90
12254;DHT22;6189;52.526;13.390;2023-09-08T06:37:23;20.80;99.90
12254;DHT22;6189;52.526;13.390;2023-09-08T06:40:12;20.90;99.90
12254;DHT22;6189;52.526;13.390;2023-09-08T06:43:00;20.90;99.90
12254;DHT22;6189;52.526;13.390;2023-09-08T06:45:47;21.00;99.90
12254;DHT22;6189;52.526;13.390;2023-09-08T06:48:37;21.00;99.90
12254;DHT22;6189;52.526;13.390;2023-09-08T06:51:24;21.10;99.90
12254;DHT22;6189;52.526;13.390;2023-09-08T06:54:11;21.10;99.90
12254;DHT22;6189;52.526;13.390;2023-09-08T06:56:40;21.20;99.90
12254;DHT22;6189;52.526;13.390;2023-09-08T06:59:27;21.30;99.90
12254;DHT22;6189;52.526;13.390;2023-09-08T07:02:16;21.20;99.90
12254;DHT22;6189;52.526;13.390;2023-09-08T07:05:09;21.20;99.90
12254;DHT22;6189;52.526;13.390;2023-09-08T07:07:55;21.20;99.90
12254;DHT22;6189;52.526;13.390;2023-09-08T07:10:41;21.30;99.90
12254;DHT22;6189;52.526;13.390;2023-09-08T07:13:26;21.40;99.90
12254;DHT22;6189;52.526;13.390;2023-09-08T07:16:13;21.30;99.90
12254;DHT22;6189;52.526;13.390;2023-09-08T07:18:58;21.40;99.90
12254;DHT22;6189;52.526;13.390;2023-09-08T07:21:50;21.30;99.90
12254;DHT22;6189;52.526;13.390;2023-09-08T07:24:35;21.40;99.90
12254;DHT22;6189;52.526;13.390;2023-09-08T07:27:21;21.60;99.90
12254;DHT22;6189;52.526;13.390;2023-09-08T07:30:09;21.60;99.90
12254;DHT22;6189;52.526;13.390;2023-09-08T07:32:56;21.60;99.90
12254;DHT22;6189;52.526;13.390;2023-09-08T07:35:43;21.70;99.90
12254;DHT22;6189;52.526;13.390;2023-09-08T07:38:39;21.70;99.90
12254;DHT22;6189;52.526;13.390;2023-09-08T07:41:24;21.90;99.90
12254;DHT22;6189;52.526;13.390;2023-09-08T07:44:11;21.90;99.90
12254;DHT22;6189;52.526;13.390;2023-09-08T07:46:57;22.10;99.90
12254;DHT22;6189;52.526;13.390;2023-09-08T07:49:45;22.20;99.90
12254;DHT22;6189;52.526;13.390;2023-09-08T07:52:31;22.30;99.90
12254;DHT22;6189;52.526;13.390;2023-09-08T07:55:19;22.20;99.90
12254;DHT22;6189;52.526;13.390;2023-09-08T07:58:07;22.40;99.90
12254;DHT22;6189;52.526;13.390;2023-09-08T08:00:54;22.50;99.90
12254;DHT22;6189;52.526;13.390;2023-09-08T08:03:42;22.50;99.90
12254;DHT22;6189;52.526;13.390;2023-09-08T08:06:28;22.50;99.90
12254;DHT22;6189;52.526;13.390;2023-09-08T08:09:13;22.60;99.90
12254;DHT22;6189;52.526;13.390;2023-09-08T08:12:01;22.50;99.90
12254;DHT22;6189;52.526;13.390;2023-09-08T08:14:46;22.50;99.90
12254;DHT22;6189;52.526;13.390;2023-09-08T08:17:35;22.50;99.90
12254;DHT22;6189;52.526;13.390;2023-09-08T08:20:22;22.50;99.90
12254;DHT22;6189;52.526;13.390;2023-09-08T08:23:08;22.60;99.90
12254;DHT22;6189;52.526;13.390;2023-09-08T08:25:53;22.60;99.90
12254;DHT22;6189;52.526;13.390;2023-09-08T08:28:40;22.70;99.90
12254;DHT22;6189;52.526;13.390;2023-09-08T08:31:25;22.70;99.90
12254;DHT22;6189;52.526;13.390;2023-09-08T08:34:11;22.80;99.90
12254;DHT22;6189;52.526;13.390;2023-09-08T08:36:57;22.90;99.90
12254;DHT22;6189;52.526;13.390;2023-09-08T08:39:43;22.90;99.90
12254;DHT22;6189;52.526;13.390;2023-09-08T08:42:30;23.00;99.90
12254;DHT22;6189;52.526;13.390;2023-09-08T08:45:18;23.10;99.90
12254;DHT22;6189;52.526;13.390;2023-09-08T08:48:06;23.10;99.90
12254;DHT22;6189;52.526;13.390;2023-09-08T08:50:53;23.00;99.90
12254;DHT22;6189;52.526;13.390;2023-09-08T08:53:38;23.30;99.90
12254;DHT22;6189;52.526;13.390;2023-09-08T08:56:24;23.50;99.90
12254;DHT22;6189;52.526;13.390;2023-09-08T08:59:10;23.50;99.90
12254;DHT22;6189;52.526;13.390;2023-09-08T09:01:57;23.50;99.90
12254;DHT22;6189;52.526;13.390;2023-09-08T09:04:43;23.50;99.90
12254;DHT22;6189;52.526;13.390;2023-09-08T09:07:29;23.50;99.90
12254;DHT22;6189;52.526;13.390;2023-09-08T09:10:16;23.60;99.90
12254;DHT22;6189;52.526;13.390;2023-09-08T09:13:01;23.60;99.90
12254;DHT22;6189;52.526;13.390;2023-09-08T09:15:48;23.60;99.90
12254;DHT22;6189;52.526;13.390;2023-09-08T09:18:36;23.80;99.90
12254;DHT22;6189;52.526;13.390;2023-09-08T09:21:41;23.80;99.90
12254;DHT22;6189;52.526;13.390;2023-09-08T09:24:31;23.90;99.90
12254;DHT22;6189;52.526;13.390;2023-09-08T09:27:17;24.00;99.90
12254;DHT22;6189;52.526;13.390;2023-09-08T09:30:03;24.20;99.90
12254;DHT22;6189;52.526;13.390;2023-09-08T09:32:58;24.40;99.90
12254;DHT22;6189;52.526;13.390;2023-09-08T09:35:45;24.50;99.90
12254;DHT22;6189;52.526;13.390;2023-09-08T09:38:32;24.50;99.90
12254;DHT22;6189;52.526;13.390;2023-09-08T09:41:19;24.50;99.90
12254;DHT22;6189;52.526;13.390;2023-09-08T09:44:05;24.70;99.90
12254;DHT22;6189;52.526;13.390;2023-09-08T09:46:51;24.80;99.90
12254;DHT22;6189;52.526;13.390;2023-09-08T09:49:41;25.00;99.90
12254;DHT22;6189;52.526;13.390;2023-09-08T09:52:28;25.20;99.90
12254;DHT22;6189;52.526;13.390;2023-09-08T09:55:15;25.20;99.90
12254;DHT22;6189;52.526;13.390;2023-09-08T09:58:01;25.20;99.90
12254;DHT22;6189;52.526;13.390;2023-09-08T10:00:48;25.30;99.90
12254;DHT22;6189;52.526;13.390;2023-09-08T10:03:35;25.30;99.90
12254;DHT22;6189;52.526;13.390;2023-09-08T10:06:21;25.40;99.90
12254;DHT22;6189;52.526;13.390;2023-09-08T10:09:08;25.50;99.90
12254;DHT22;6189;52.526;13.390;2023-09-08T10:11:58;25.90;99.50
12254;DHT22;6189;52.526;13.390;2023-09-08T10:14:48;26.40;98.70
12254;DHT22;6189;52.526;13.390;2023-09-08T10:17:36;26.60;99.70
12254;DHT22;6189;52.526;13.390;2023-09-08T10:20:22;26.80;98.30
12254;DHT22;6189;52.526;13.390;2023-09-08T10:23:10;27.20;97.50
12254;DHT22;6189;52.526;13.390;2023-09-08T10:25:59;27.30;98.20
12254;DHT22;6189;52.526;13.390;2023-09-08T10:28:45;27.60;96.80
12254;DHT22;6189;52.526;13.390;2023-09-08T10:31:31;27.90;96.60
12254;DHT22;6189;52.526;13.390;2023-09-08T10:34:18;27.90;96.00
12254;DHT22;6189;52.526;13.390;2023-09-08T10:37:09;28.10;95.20
12254;DHT22;6189;52.526;13.390;2023-09-08T10:43:19;28.90;94.80
12254;DHT22;6189;52.526;13.390;2023-09-08T10:46:08;28.90;93.60
12254;DHT22;6189;52.526;13.390;2023-09-08T10:48:55;28.90;91.90
12254;DHT22;6189;52.526;13.390;2023-09-08T10:51:47;28.90;91.80
12254;DHT22;6189;52.526;13.390;2023-09-08T10:54:42;28.80;91.70
12254;DHT22;6189;52.526;13.390;2023-09-08T10:57:27;28.90;92.40
12254;DHT22;6189;52.526;13.390;2023-09-08T11:00:19;28.90;91.60
12254;DHT22;6189;52.526;13.390;2023-09-08T11:03:04;29.10;91.30
12254;DHT22;6189;52.526;13.390;2023-09-08T11:05:51;29.00;91.20
12254;DHT22;6189;52.526;13.390;2023-09-08T11:08:38;29.00;91.30
12254;DHT22;6189;52.526;13.390;2023-09-08T11:11:23;29.10;90.80
12254;DHT22;6189;52.526;13.390;2023-09-08T11:14:09;29.20;91.00
12254;DHT22;6189;52.526;13.390;2023-09-08T11:17:00;29.30;91.00
12254;DHT22;6189;52.526;13.390;2023-09-08T11:19:48;29.30;90.20
12254;DHT22;6189;52.526;13.390;2023-09-08T11:22:34;29.30;90.00
12254;DHT22;6189;52.526;13.390;2023-09-08T11:25:20;29.40;90.00
12254;DHT22;6189;52.526;13.390;2023-09-08T11:28:05;29.50;87.60
12254;DHT22;6189;52.526;13.390;2023-09-08T11:30:51;29.70;86.10
12254;DHT22;6189;52.526;13.390;2023-09-08T11:33:38;29.80;84.30
12254;DHT22;6189;52.526;13.390;2023-09-08T11:36:24;29.90;85.40
12254;DHT22;6189;52.526;13.390;2023-09-08T11:39:10;29.90;83.40
12254;DHT22;6189;52.526;13.390;2023-09-08T11:41:57;30.10;84.40
12254;DHT22;6189;52.526;13.390;2023-09-08T11:44:44;30.10;82.80
12254;DHT22;6189;52.526;13.390;2023-09-08T11:47:29;30.10;83.80
12254;DHT22;6189;52.526;13.390;2023-09-08T11:50:19;30.20;82.60
12254;DHT22;6189;52.526;13.390;2023-09-08T11:53:06;30.30;83.30
12254;DHT22;6189;52.526;13.390;2023-09-08T11:55:51;30.40;83.30
12254;DHT22;6189;52.526;13.390;2023-09-08T11:58:37;30.50;82.10
12254;DHT22;6189;52.526;13.390;2023-09-08T12:01:26;30.50;81.20
12254;DHT22;6189;52.526;13.390;2023-09-08T12:04:16;30.60;77.20
12254;DHT22;6189;52.526;13.390;2023-09-08T12:07:04;30.70;79.40
12254;DHT22;6189;52.526;13.390;2023-09-08T12:09:50;30.70;79.20
12254;DHT22;6189;52.526;13.390;2023-09-08T12:12:41;30.80;77.10
12254;DHT22;6189;52.526;13.390;2023-09-08T12:15:30;30.80;74.70
12254;DHT22;6189;52.526;13.390;2023-09-08T12:18:17;30.70;74.40
12254;DHT22;6189;52.526;13.390;2023-09-08T12:21:02;30.70;74.80
12254;DHT22;6189;52.526;13.390;2023-09-08T12:23:52;30.80;76.50
12254;DHT22;6189;52.526;13.390;2023-09-08T12:26:38;30.80;75.10
12254;DHT22;6189;52.526;13.390;2023-09-08T12:29:24;30.90;73.20
12254;DHT22;6189;52.526;13.390;2023-09-08T12:32:12;30.90;73.40
12254;DHT22;6189;52.526;13.390;2023-09-08T12:34:59;30.90;74.90
12254;DHT22;6189;52.526;13.390;2023-09-08T12:37:47;30.90;74.60
12254;DHT22;6189;52.526;13.390;2023-09-08T12:40:35;31.00;75.50
12254;DHT22;6189;52.526;13.390;2023-09-08T12:43:24;31.10;72.40
12254;DHT22;6189;52.526;13.390;2023-09-08T12:46:09;31.10;73.90
12254;DHT22;6189;52.526;13.390;2023-09-08T12:48:55;31.10;73.20
12254;DHT22;6189;52.526;13.390;2023-09-08T12:51:40;31.10;74.20
12254;DHT22;6189;52.526;13.390;2023-09-08T12:54:26;30.80;73.30
12254;DHT22;6189;52.526;13.390;2023-09-08T12:57:13;30.80;74.00
12254;DHT22;6189;52.526;13.390;2023-09-08T12:59:58;30.70;74.80
12254;DHT22;6189;52.526;13.390;2023-09-08T13:02:44;30.50;72.90
12254;DHT22;6189;52.526;13.390;2023-09-08T13:05:29;30.50;73.00
12254;DHT22;6189;52.526;13.390;2023-09-08T13:08:15;30.40;72.80
12254;DHT22;6189;52.526;13.390;2023-09-08T13:11:00;30.50;69.70
12254;DHT22;6189;52.526;13.390;2023-09-08T13:13:48;30.40;70.50
12254;DHT22;6189;52.526;13.390;2023-09-08T13:16:34;30.20;72.20
12254;DHT22;6189;52.526;13.390;2023-09-08T13:19:19;29.90;74.10
12254;DHT22;6189;52.526;13.390;2023-09-08T13:22:05;29.80;74.10
12254;DHT22;6189;52.526;13.390;2023-09-08T13:24:51;29.80;75.40
12254;DHT22;6189;52.526;13.390;2023-09-08T13:27:36;29.70;75.90
12254;DHT22;6189;52.526;13.390;2023-09-08T13:30:23;29.70;72.00
12254;DHT22;6189;52.526;13.390;2023-09-08T13:33:11;29.60;75.30
12254;DHT22;6189;52.526;13.390;2023-09-08T13:35:57;29.50;71.80
12254;DHT22;6189;52.526;13.390;2023-09-08T13:38:43;29.50;69.90
12254;DHT22;6189;52.526;13.390;2023-09-08T13:41:43;29.50;70.70
12254;DHT22;6189;52.526;13.390;2023-09-08T13:44:28;29.40;71.00
12254;DHT22;6189;52.526;13.390;2023-09-08T13:47:15;29.20;74.60
12254;DHT22;6189;52.526;13.390;2023-09-08T13:50:01;29.20;70.70
12254;DHT22;6189;52.526;13.390;2023-09-08T13:52:47;29.10;72.00
12254;DHT22;6189;52.526;13.390;2023-09-08T13:55:32;29.20;71.50
12254;DHT22;6189;52.526;13.390;2023-09-08T13:58:19;29.10;73.10
12254;DHT22;6189;52.526;13.390;2023-09-08T14:01:05;29.00;71.00
12254;DHT22;6189;52.526;13.390;2023-09-08T14:03:51;29.10;73.40
12254;DHT22;6189;52.526;13.390;2023-09-08T14:06:37;29.00;73.80
12254;DHT22;6189;52.526;13.390;2023-09-08T14:09:22;28.90;74.50
12254;DHT22;6189;52.526;13.390;2023-09-08T14:12:10;28.90;72.50
12254;DHT22;6189;52.526;13.390;2023-09-08T14:14:56;28.80;74.90
12254;DHT22;6189;52.526;13.390;2023-09-08T14:17:41;28.70;73.90
12254;DHT22;6189;52.526;13.390;2023-09-08T14:20:28;28.80;72.20
12254;DHT22;6189;52.526;13.390;2023-09-08T14:23:15;28.70;73.50
12254;DHT22;6189;52.526;13.390;2023-09-08T14:26:00;28.60;73.90
12254;DHT22;6189;52.526;13.390;2023-09-08T14:28:46;28.70;70.40
12254;DHT22;6189;52.526;13.390;2023-09-08T14:31:33;28.70;69.60
12254;DHT22;6189;52.526;13.390;2023-09-08T14:34:19;28.60;70.30
12254;DHT22;6189;52.526;13.390;2023-09-08T14:37:06;28.60;74.60
12254;DHT22;6189;52.526;13.390;2023-09-08T14:39:52;28.50;72.90
12254;DHT22;6189;52.526;13.390;2023-09-08T14:42:38;28.40;71.80
12254;DHT22;6189;52.526;13.390;2023-09-08T14:45:23;28.40;72.90
12254;DHT22;6189;52.526;13.390;2023-09-08T14:48:12;28.40;71.80
12254;DHT22;6189;52.526;13.390;2023-09-08T14:50:58;28.40;68.60
12254;DHT22;6189;52.526;13.390;2023-09-08T14:53:45;28.50;68.00
12254;DHT22;6189;52.526;13.390;2023-09-08T14:56:30;28.50;69.50
12254;DHT22;6189;52.526;13.390;2023-09-08T14:59:16;28.40;71.00
12254;DHT22;6189;52.526;13.390;2023-09-08T15:02:01;28.30;71.70
12254;DHT22;6189;52.526;13.390;2023-09-08T15:04:47;28.20;70.00
12254;DHT22;6189;52.526;13.390;2023-09-08T15:07:33;28.10;71.50
12254;DHT22;6189;52.526;13.390;2023-09-08T15:10:20;28.20;69.10
12254;DHT22;6189;52.526;13.390;2023-09-08T15:13:06;28.30;67.80
12254;DHT22;6189;52.526;13.390;2023-09-08T15:15:51;28.30;67.50
12254;DHT22;6189;52.526;13.390;2023-09-08T15:18:37;28.30;66.70
12254;DHT22;6189;52.526;13.390;2023-09-08T15:21:23;28.30;68.00
12254;DHT22;6189;52.526;13.390;2023-09-08T15:24:11;28.20;67.40
12254;DHT22;6189;52.526;13.390;2023-09-08T15:27:00;28.20;69.20
12254;DHT22;6189;52.526;13.390;2023-09-08T15:29:48;28.00;69.20
12254;DHT22;6189;52.526;13.390;2023-09-08T15:32:33;28.10;68.20
12254;DHT22;6189;52.526;13.390;2023-09-08T15:35:19;28.00;71.60
12254;DHT22;6189;52.526;13.390;2023-09-08T15:38:05;27.90;71.10
12254;DHT22;6189;52.526;13.390;2023-09-08T15:41:12;27.90;69.40
12254;DHT22;6189;52.526;13.390;2023-09-08T15:44:04;27.90;68.30
12254;DHT22;6189;52.526;13.390;2023-09-08T15:46:49;28.00;68.30
12254;DHT22;6189;52.526;13.390;2023-09-08T15:49:36;28.00;67.90
12254;DHT22;6189;52.526;13.390;2023-09-08T15:52:21;28.00;68.30
12254;DHT22;6189;52.526;13.390;2023-09-08T15:55:07;28.00;68.20
12254;DHT22;6189;52.526;13.390;2023-09-08T15:57:53;27.90;67.60
12254;DHT22;6189;52.526;13.390;2023-09-08T16:00:40;27.90;68.00
12254;DHT22;6189;52.526;13.390;2023-09-08T16:03:25;27.90;69.50
12254;DHT22;6189;52.526;13.390;2023-09-08T16:06:12;27.80;68.50
12254;DHT22;6189;52.526;13.390;2023-09-08T16:08:58;27.80;68.20
12254;DHT22;6189;52.526;13.390;2023-09-08T16:11:44;27.80;68.00
12254;DHT22;6189;52.526;13.390;2023-09-08T16:14:33;27.80;67.70
12254;DHT22;6189;52.526;13.390;2023-09-08T16:17:21;27.80;67.50
12254;DHT22;6189;52.526;13.390;2023-09-08T16:20:07;27.70;68.70
12254;DHT22;6189;52.526;13.390;2023-09-08T16:22:53;27.70;68.60
12254;DHT22;6189;52.526;13.390;2023-09-08T16:25:38;27.60;70.60
12254;DHT22;6189;52.526;13.390;2023-09-08T16:28:24;27.50;69.30
12254;DHT22;6189;52.526;13.390;2023-09-08T16:31:10;27.50;69.40
12254;DHT22;6189;52.526;13.390;2023-09-08T16:34:01;27.60;69.20
12254;DHT22;6189;52.526;13.390;2023-09-08T16:36:47;27.50;69.40
12254;DHT22;6189;52.526;13.390;2023-09-08T16:39:36;27.40;69.10
12254;DHT22;6189;52.526;13.390;2023-09-08T16:42:22;27.30;71.60
12254;DHT22;6189;52.526;13.390;2023-09-08T16:45:07;27.40;69.50
12254;DHT22;6189;52.526;13.390;2023-09-08T16:47:53;27.40;69.40
12254;DHT22;6189;52.526;13.390;2023-09-08T16:50:40;27.40;69.40
12254;DHT22;6189;52.526;13.390;2023-09-08T16:53:29;27.30;69.60
12254;DHT22;6189;52.526;13.390;2023-09-08T16:56:14;27.30;69.90
12254;DHT22;6189;52.526;13.390;2023-09-08T16:59:00;27.30;69.80
12254;DHT22;6189;52.526;13.390;2023-09-08T17:01:45;27.30;69.90
12254;DHT22;6189;52.526;13.390;2023-09-08T17:04:31;27.20;70.30
12254;DHT22;6189;52.526;13.390;2023-09-08T17:07:18;27.20;71.40
12254;DHT22;6189;52.526;13.390;2023-09-08T17:10:05;27.10;77.40
12254;DHT22;6189;52.526;13.390;2023-09-08T17:12:51;27.10;72.00
12254;DHT22;6189;52.526;13.390;2023-09-08T17:15:37;27.00;72.00
12254;DHT22;6189;52.526;13.390;2023-09-08T17:18:24;27.00;72.30
12254;DHT22;6189;52.526;13.390;2023-09-08T17:21:10;26.90;73.80
12254;DHT22;6189;52.526;13.390;2023-09-08T17:23:57;26.90;77.10
12254;DHT22;6189;52.526;13.390;2023-09-08T17:26:47;26.80;73.70
12254;DHT22;6189;52.526;13.390;2023-09-08T17:29:33;26.80;73.50
12254;DHT22;6189;52.526;13.390;2023-09-08T17:32:19;26.80;74.00
12254;DHT22;6189;52.526;13.390;2023-09-08T17:35:05;26.70;75.90
12254;DHT22;6189;52.526;13.390;2023-09-08T17:37:51;26.60;77.50
12254;DHT22;6189;52.526;13.390;2023-09-08T17:40:38;26.60;75.00
12254;DHT22;6189;52.526;13.390;2023-09-08T17:43:24;26.60;74.60
12254;DHT22;6189;52.526;13.390;2023-09-08T17:46:09;26.60;74.90